Time;durP1;ratioP1;P1;durP2;ratioP2;P2;SDS_P1;SDS_P2;PMS_P1;PMS_P2;Temp;Humidity;BMP_temperature;BMP_pressure;BME280_temperature;BME280_humidity;BME280_pressure;Samples;Min_cycle;Max_cycle;Signal;HPM_P1;HPM_P2
2024/04/21 00:01:58;;;;;;;1.60;1.55;;;7.10;82.20;;;;;;5429758;26;20689;-73
2024/04/21 00:04:27;;;;;;;1.42;1.42;;;7.10;82.80;;;;;;5397869;26;20343;-73
2024/04/21 00:06:53;;;;;;;1.50;1.50;;;7.10;84.00;;;;;;5398997;26;20259;-76
2024/04/21 00:09:24;;;;;;;1.50;1.50;;;7.00;84.10;;;;;;5425483;26;20368;-73
2024/04/21 00:11:50;;;;;;;1.55;1.50;;;7.00;83.90;;;;;;5407074;26;20748;-73
2024/04/21 00:14:19;;;;;;;1.30;1.30;;;7.00;83.60;;;;;;5431035;26;20248;-73
2024/04/21 00:16:45;;;;;;;1.45;1.45;;;6.90;83.50;;;;;;5428483;26;20249;-75
2024/04/21 00:19:14;;;;;;;1.50;1.50;;;7.00;83.70;;;;;;5400076;26;20306;-76
2024/04/21 00:21:40;;;;;;;1.30;1.30;;;6.90;83.50;;;;;;5398582;26;20385;-74
2024/04/21 00:24:09;;;;;;;1.48;1.48;;;6.90;83.10;;;;;;5407654;26;20298;-73
2024/04/21 00:26:38;;;;;;;1.30;1.30;;;6.80;82.70;;;;;;5431853;26;20697;-72
2024/04/21 00:29:07;;;;;;;1.30;1.30;;;6.80;83.70;;;;;;5431729;26;20611;-72
2024/04/21 00:31:33;;;;;;;2.08;1.98;;;6.70;83.90;;;;;;5430383;26;20294;-72
2024/04/21 00:34:02;;;;;;;1.58;1.58;;;6.70;84.00;;;;;;5414391;26;20839;-72
2024/04/21 00:36:28;;;;;;;1.50;1.50;;;6.70;84.30;;;;;;5403510;26;20297;-72
2024/04/21 00:38:57;;;;;;;1.60;1.60;;;6.60;84.40;;;;;;5423728;26;21044;-71
2024/04/21 00:41:23;;;;;;;1.98;1.88;;;6.50;85.00;;;;;;5397802;26;20255;-74
2024/04/21 00:43:57;;;;;;;1.48;1.48;;;6.50;85.20;;;;;;5400609;26;20306;-73
2024/04/21 00:46:23;;;;;;;1.67;1.67;;;6.40;85.40;;;;;;5438570;26;20287;-72
2024/04/21 00:48:53;;;;;;;1.60;1.60;;;6.40;85.40;;;;;;5436859;26;20259;-72
2024/04/21 00:51:21;;;;;;;1.92;1.83;;;6.40;85.40;;;;;;5412686;26;20290;-73
2024/04/21 00:53:52;;;;;;;1.58;1.50;;;6.50;85.60;;;;;;5435726;26;20639;-72
2024/04/21 00:56:21;;;;;;;1.48;1.48;;;6.50;85.60;;;;;;5429954;26;20306;-72
2024/04/21 00:58:51;;;;;;;1.73;1.63;;;6.50;85.80;;;;;;5429442;26;20326;-72
2024/04/21 01:01:20;;;;;;;1.67;1.65;;;6.40;86.20;;;;;;5400801;26;20251;-73
2024/04/21 01:03:51;;;;;;;1.45;1.45;;;6.40;86.60;;;;;;5426449;26;20698;-72
2024/04/21 01:06:17;;;;;;;1.23;1.23;;;6.40;86.60;;;;;;5397434;26;21057;-73
2024/04/21 01:08:47;;;;;;;1.50;1.50;;;6.30;86.90;;;;;;5422612;26;20314;-73
2024/04/21 01:11:17;;;;;;;1.88;1.77;;;6.30;87.30;;;;;;5428948;26;20677;-72
2024/04/21 01:13:45;;;;;;;1.67;1.67;;;6.30;86.90;;;;;;5427580;26;20247;-72
2024/04/21 01:16:13;;;;;;;1.42;1.42;;;6.30;87.10;;;;;;5422862;26;20283;-71
2024/04/21 01:18:44;;;;;;;1.40;1.40;;;6.30;87.30;;;;;;5396100;26;20266;-75
2024/04/21 01:21:10;;;;;;;1.50;1.50;;;6.20;87.10;;;;;;5426732;26;20294;-76
2024/04/21 01:23:42;;;;;;;1.42;1.40;;;6.20;87.00;;;;;;5375272;26;20259;-74
2024/04/21 01:26:08;;;;;;;1.50;1.50;;;6.20;87.40;;;;;;5421848;26;20260;-76
2024/04/21 01:28:37;;;;;;;1.40;1.40;;;6.20;87.80;;;;;;5431146;26;20263;-77
2024/04/21 01:31:03;;;;;;;1.75;1.75;;;6.20;87.90;;;;;;5428839;26;20243;-80
2024/04/21 01:33:32;;;;;;;1.55;1.55;;;6.20;88.50;;;;;;5370205;26;20273;-73
2024/04/21 01:35:58;;;;;;;1.50;1.50;;;6.10;89.20;;;;;;5398893;26;20831;-78
2024/04/21 01:38:28;;;;;;;1.58;1.58;;;6.10;88.90;;;;;;5423999;26;20260;-74
2024/04/21 01:40:57;;;;;;;1.80;1.70;;;6.20;88.90;;;;;;5394717;26;20307;-77
2024/04/21 01:43:25;;;;;;;1.70;1.70;;;6.20;89.10;;;;;;5374415;26;20263;-76
2024/04/21 01:45:52;;;;;;;1.60;1.60;;;6.20;89.00;;;;;;5426035;26;20816;-78
2024/04/21 01:48:21;;;;;;;1.67;1.67;;;6.10;89.00;;;;;;5420106;26;20262;-74
2024/04/21 01:50:47;;;;;;;1.90;1.80;;;6.10;88.70;;;;;;5423112;26;20691;-74
2024/04/21 01:53:16;;;;;;;1.90;1.90;;;6.10;90.00;;;;;;5428071;26;20380;-74
2024/04/21 01:55:42;;;;;;;1.70;1.60;;;6.00;90.10;;;;;;5429859;26;20251;-76
2024/04/21 01:58:13;;;;;;;1.40;1.40;;;5.90;90.10;;;;;;5418762;26;20252;-74
2024/04/21 02:00:39;;;;;;;1.80;1.80;;;5.90;90.50;;;;;;5426818;26;20251;-76
2024/04/21 02:03:08;;;;;;;1.50;1.40;;;5.80;90.80;;;;;;5428418;26;20294;-74
2024/04/21 02:05:34;;;;;;;1.60;1.60;;;5.80;91.00;;;;;;5437249;26;20350;-76
2024/04/21 02:08:03;;;;;;;1.85;1.85;;;5.80;91.00;;;;;;5417604;26;20385;-75
2024/04/21 02:10:29;;;;;;;1.88;1.80;;;5.70;91.40;;;;;;5430297;26;20309;-75
2024/04/21 02:12:58;;;;;;;1.60;1.60;;;5.60;92.30;;;;;;5423360;26;20302;-73
2024/04/21 02:15:27;;;;;;;1.40;1.40;;;5.60;91.70;;;;;;5429754;26;20282;-72
2024/04/21 02:17:56;;;;;;;1.48;1.48;;;5.60;91.40;;;;;;5423881;26;20260;-73
2024/04/21 02:20:22;;;;;;;1.65;1.65;;;5.60;91.30;;;;;;5420781;26;21218;-73
2024/04/21 02:22:52;;;;;;;1.80;1.80;;;5.70;91.50;;;;;;5427249;26;20293;-72
2024/04/21 02:25:18;;;;;;;1.60;1.50;;;5.70;91.40;;;;;;5403525;26;20328;-73
2024/04/21 02:27:47;;;;;;;2.42;2.28;;;5.70;91.30;;;;;;5397921;26;20834;-72
2024/04/21 02:30:15;;;;;;;1.80;1.80;;;5.70;91.70;;;;;;5428596;26;20757;-72
2024/04/21 02:32:44;;;;;;;1.90;1.80;;;5.70;92.00;;;;;;5395266;26;20256;-73
2024/04/21 02:35:13;;;;;;;1.83;1.73;;;5.70;92.10;;;;;;5399999;26;20760;-72
2024/04/21 02:37:39;;;;;;;1.70;1.70;;;5.60;92.80;;;;;;5401959;26;20830;-73
2024/04/21 02:40:08;;;;;;;1.80;1.70;;;5.50;92.40;;;;;;5426536;26;20256;-73
2024/04/21 02:42:35;;;;;;;1.50;1.50;;;5.40;92.40;;;;;;5422044;26;20272;-72
2024/04/21 02:45:04;;;;;;;1.77;1.73;;;5.40;92.50;;;;;;5402805;26;20363;-73
2024/04/21 02:47:30;;;;;;;2.10;2.00;;;5.40;92.00;;;;;;5424499;26;20289;-72
2024/04/21 02:50:02;;;;;;;2.00;1.90;;;5.40;92.20;;;;;;5381070;26;20786;-73
2024/04/21 02:52:28;;;;;;;1.70;1.70;;;5.30;92.20;;;;;;5418805;26;20247;-73
2024/04/21 02:54:57;;;;;;;1.85;1.77;;;5.30;92.30;;;;;;5407247;26;20279;-75
2024/04/21 02:57:23;;;;;;;1.52;1.52;;;5.30;92.20;;;;;;5425902;26;20247;-73
2024/04/21 02:59:51;;;;;;;1.80;1.80;;;5.40;92.80;;;;;;5373966;26;20257;-73
2024/04/21 03:02:17;;;;;;;1.60;1.60;;;5.40;92.70;;;;;;5399003;26;20255;-73
2024/04/21 03:04:46;;;;;;;2.03;1.92;;;5.40;92.60;;;;;;5404507;26;20286;-74
2024/04/21 03:07:17;;;;;;;1.90;1.85;;;5.40;92.70;;;;;;5370928;26;20668;-75
2024/04/21 03:09:46;;;;;;;1.67;1.67;;;5.40;92.80;;;;;;5431370;26;20304;-75
2024/04/21 03:12:12;;;;;;;1.73;1.70;;;5.30;92.70;;;;;;5430292;26;20305;-79
2024/04/21 03:14:41;;;;;;;1.70;1.70;;;5.30;92.80;;;;;;5401587;26;20748;-73
2024/04/21 03:17:08;;;;;;;1.65;1.65;;;5.20;92.80;;;;;;5376112;26;20256;-75
2024/04/21 03:19:37;;;;;;;1.65;1.65;;;5.10;93.00;;;;;;5431635;26;20251;-74
2024/04/21 03:22:04;;;;;;;1.90;1.80;;;5.10;93.20;;;;;;5405062;26;20251;-73
2024/04/21 03:24:35;;;;;;;1.92;1.83;;;5.10;93.10;;;;;;5433205;26;20872;-75
2024/04/21 03:27:01;;;;;;;2.08;1.98;;;5.10;93.60;;;;;;5400173;26;20260;-73
2024/04/21 03:29:30;;;;;;;1.83;1.83;;;5.10;93.80;;;;;;5396175;26;20290;-71
2024/04/21 03:31:56;;;;;;;2.08;1.98;;;5.10;93.90;;;;;;5436494;26;20259;-72
2024/04/21 03:34:25;;;;;;;1.83;1.73;;;5.10;94.10;;;;;;5432070;26;20251;-71
2024/04/21 03:36:54;;;;;;;2.10;2.00;;;5.10;94.00;;;;;;5401372;26;20290;-72
2024/04/21 03:39:23;;;;;;;1.80;1.80;;;5.00;94.40;;;;;;5405649;26;20290;-72
2024/04/21 03:41:55;;;;;;;1.90;1.80;;;5.00;94.50;;;;;;5430495;26;20661;-73
2024/04/21 03:44:22;;;;;;;2.00;1.90;;;4.90;94.50;;;;;;5407090;26;20255;-73
2024/04/21 03:46:50;;;;;;;2.10;2.00;;;4.90;94.90;;;;;;5430739;26;20270;-73
2024/04/21 03:49:16;;;;;;;2.00;1.90;;;4.90;95.20;;;;;;5431591;26;20251;-73
2024/04/21 03:51:45;;;;;;;2.42;2.22;;;4.80;94.70;;;;;;5401233;26;20255;-73
2024/04/21 03:54:11;;;;;;;1.90;1.83;;;4.80;94.80;;;;;;5369494;26;20267;-73
2024/04/21 03:56:40;;;;;;;2.00;1.95;;;4.80;94.50;;;;;;5397986;26;21161;-74
2024/04/21 03:59:09;;;;;;;1.90;1.90;;;4.80;94.40;;;;;;5377539;26;20840;-75
2024/04/21 04:01:38;;;;;;;1.50;1.50;;;4.70;94.50;;;;;;5374433;26;20356;-74
2024/04/21 04:04:04;;;;;;;1.60;1.60;;;4.70;94.60;;;;;;5428302;26;21441;-73
2024/04/21 04:06:32;;;;;;;1.80;1.80;;;4.70;94.40;;;;;;5432149;26;20292;-75
2024/04/21 04:08:58;;;;;;;2.08;2.00;;;4.70;94.40;;;;;;5430052;26;20983;-74
2024/04/21 04:11:27;;;;;;;2.20;2.10;;;4.70;94.70;;;;;;5397562;26;20711;-75
2024/04/21 04:13:53;;;;;;;2.08;1.98;;;4.70;95.00;;;;;;5404873;26;20259;-75
2024/04/21 04:16:25;;;;;;;1.80;1.80;;;4.70;95.10;;;;;;5425670;26;20775;-74
2024/04/21 04:18:50;;;;;;;2.05;1.95;;;4.80;95.30;;;;;;5407176;26;20298;-73
2024/04/21 04:21:19;;;;;;;2.38;2.28;;;4.80;95.70;;;;;;5400207;26;20251;-72
2024/04/21 04:23:45;;;;;;;2.15;2.05;;;4.80;95.80;;;;;;5431161;26;20251;-72
2024/04/21 04:26:14;;;;;;;2.53;2.42;;;4.70;95.90;;;;;;5426009;26;20800;-73
2024/04/21 04:28:40;;;;;;;2.30;2.20;;;4.70;96.20;;;;;;5423149;26;20297;-73
2024/04/21 04:31:08;;;;;;;2.15;2.05;;;4.70;96.50;;;;;;5429845;26;20236;-73
2024/04/21 04:33:37;;;;;;;2.42;2.33;;;4.60;96.30;;;;;;5421208;26;20282;-72
2024/04/21 04:36:07;;;;;;;2.10;2.00;;;4.60;96.50;;;;;;5350660;26;20355;-72
2024/04/21 04:38:33;;;;;;;2.40;2.30;;;4.70;96.90;;;;;;5428266;26;20263;-72
2024/04/21 04:41:02;;;;;;;2.38;2.28;;;4.70;97.00;;;;;;5374686;26;20652;-72
2024/04/21 04:43:28;;;;;;;2.30;2.20;;;4.60;97.00;;;;;;5398957;26;20259;-72
2024/04/21 04:45:56;;;;;;;2.30;2.20;;;4.60;97.00;;;;;;5434231;26;23663;-72
2024/04/21 04:48:22;;;;;;;1.75;1.73;;;4.70;97.20;;;;;;5398781;26;20733;-72
2024/04/21 04:50:54;;;;;;;2.20;2.10;;;4.70;98.80;;;;;;5427798;26;20255;-72
2024/04/21 04:53:20;;;;;;;2.20;2.10;;;4.70;97.80;;;;;;5400051;26;20328;-73
2024/04/21 04:55:49;;;;;;;2.08;2.05;;;4.80;97.40;;;;;;5390567;26;20609;-72
2024/04/21 04:58:18;;;;;;;2.08;2.00;;;5.00;97.30;;;;;;5425599;26;20290;-71
2024/04/21 05:00:44;;;;;;;2.25;2.15;;;5.10;97.10;;;;;;5403749;26;20287;-75
2024/04/21 05:03:13;;;;;;;2.03;1.92;;;5.20;97.20;;;;;;5427722;26;20263;-73
2024/04/21 05:05:39;;;;;;;2.20;2.10;;;5.40;97.60;;;;;;5429700;26;20259;-72
2024/04/21 05:08:11;;;;;;;2.20;2.10;;;5.80;97.70;;;;;;5400249;26;20262;-75
2024/04/21 05:10:37;;;;;;;2.10;2.00;;;6.30;97.60;;;;;;5400875;26;20297;-72
2024/04/21 05:13:06;;;;;;;2.20;2.10;;;6.70;97.20;;;;;;5427215;26;20256;-72
2024/04/21 05:15:32;;;;;;;2.40;2.30;;;7.10;96.40;;;;;;5432429;26;20277;-73
2024/04/21 05:18:00;;;;;;;2.30;2.20;;;7.50;96.10;;;;;;5424725;26;20688;-72
2024/04/21 05:20:26;;;;;;;2.35;2.13;;;7.70;94.70;;;;;;5434856;26;21166;-73
2024/04/21 05:22:55;;;;;;;2.17;2.08;;;7.70;94.00;;;;;;5427199;26;20306;-72
2024/04/21 05:25:24;;;;;;;2.22;2.10;;;7.60;93.70;;;;;;5429642;26;20251;-72
2024/04/21 05:27:52;;;;;;;2.20;2.10;;;7.40;94.10;;;;;;5422841;26;20298;-72
2024/04/21 05:30:18;;;;;;;2.20;2.10;;;7.20;94.40;;;;;;5388738;26;20332;-73
2024/04/21 05:32:47;;;;;;;2.10;2.00;;;7.00;94.50;;;;;;5396911;26;20291;-75
2024/04/21 05:35:13;;;;;;;2.20;2.10;;;6.90;94.60;;;;;;5407703;26;20251;-75
2024/04/21 05:37:43;;;;;;;2.03;1.92;;;6.90;94.80;;;;;;5427657;26;20793;-74
2024/04/21 05:40:10;;;;;;;2.22;2.13;;;6.80;95.30;;;;;;5401563;26;20328;-74
2024/04/21 05:42:41;;;;;;;2.20;1.90;;;6.70;95.90;;;;;;5436195;26;20334;-73
2024/04/21 05:45:07;;;;;;;2.05;1.95;;;6.70;96.40;;;;;;5425108;26;20808;-74
2024/04/21 05:47:35;;;;;;;2.10;2.00;;;6.70;96.90;;;;;;5419170;26;21066;-74
2024/04/21 05:50:03;;;;;;;2.00;1.90;;;6.70;97.40;;;;;;5421110;26;20255;-74
2024/04/21 05:52:31;;;;;;;2.17;2.08;;;6.70;97.60;;;;;;5406489;26;20255;-74
2024/04/21 05:54:57;;;;;;;2.10;2.00;;;6.70;98.00;;;;;;5377383;26;21022;-72
2024/04/21 05:57:26;;;;;;;2.10;2.00;;;6.80;98.70;;;;;;5423898;26;20270;-72
2024/04/21 05:59:55;;;;;;;2.30;2.20;;;6.80;98.70;;;;;;5428874;26;20255;-72
2024/04/21 06:02:24;;;;;;;2.25;2.15;;;6.90;99.20;;;;;;5424908;26;20306;-72
2024/04/21 06:04:50;;;;;;;1.95;1.85;;;7.00;99.60;;;;;;5424459;26;20785;-72
2024/04/21 06:07:18;;;;;;;2.45;2.28;;;7.00;99.30;;;;;;5397363;26;20293;-71
2024/04/21 06:09:46;;;;;;;2.08;1.98;;;6.90;99.90;;;;;;5405828;26;20318;-71
2024/04/21 06:12:14;;;;;;;2.65;2.45;;;6.70;99.90;;;;;;5399785;26;20307;-71
2024/04/21 06:14:40;;;;;;;2.30;2.20;;;6.50;99.90;;;;;;5401597;26;21047;-72
2024/04/21 06:17:12;;;;;;;2.47;2.38;;;6.40;99.90;;;;;;5392962;26;20293;-75
2024/04/21 06:19:38;;;;;;;2.25;2.15;;;6.50;99.90;;;;;;5403345;26;20287;-74
2024/04/21 06:22:09;;;;;;;2.28;2.13;;;6.60;99.90;;;;;;5393619;26;20255;-73
2024/04/21 06:24:35;;;;;;;2.72;2.53;;;6.70;99.90;;;;;;5369665;26;20806;-75
2024/04/21 06:27:04;;;;;;;2.17;2.08;;;6.80;99.90;;;;;;5458379;26;20301;-73
2024/04/21 06:29:30;;;;;;;2.17;2.08;;;6.80;99.90;;;;;;5420490;26;20600;-73
2024/04/21 06:32:00;;;;;;;2.35;2.22;;;6.80;99.40;;;;;;5416770;26;20298;-73
2024/04/21 06:34:28;;;;;;;2.20;2.00;;;6.80;99.90;;;;;;5369771;26;20255;-72
2024/04/21 06:36:57;;;;;;;2.47;2.28;;;6.80;99.90;;;;;;5403856;26;20661;-72
2024/04/21 06:39:23;;;;;;;2.78;2.45;;;6.90;99.90;;;;;;5395845;26;20255;-72
2024/04/21 06:41:52;;;;;;;2.42;2.00;;;6.90;99.90;;;;;;5405779;26;20255;-76
2024/04/21 06:44:18;;;;;;;2.28;2.05;;;6.90;99.90;;;;;;5418840;26;20252;-73
2024/04/21 06:46:47;;;;;;;2.10;2.00;;;7.00;99.90;;;;;;5428810;26;20357;-73
2024/04/21 06:49:14;;;;;;;1.83;1.73;;;7.10;99.90;;;;;;5422667;26;20256;-74
2024/04/21 06:51:45;;;;;;;2.15;2.05;;;7.20;99.90;;;;;;5421737;26;20282;-73
2024/04/21 06:54:11;;;;;;;2.05;1.95;;;7.30;99.90;;;;;;5375103;26;20267;-72
2024/04/21 06:56:40;;;;;;;5.20;2.72;;;7.30;99.90;;;;;;5400189;26;20342;-74
2024/04/21 06:59:06;;;;;;;2.33;2.13;;;7.50;99.90;;;;;;5422701;26;20301;-72
2024/04/21 07:01:35;;;;;;;2.92;2.70;;;7.50;99.90;;;;;;5406535;26;20255;-75
2024/04/21 07:04:01;;;;;;;6.93;2.30;;;7.60;99.90;;;;;;5372982;26;20271;-74
2024/04/21 07:06:31;;;;;;;2.28;2.08;;;7.60;99.90;;;;;;5420334;26;20372;-75
2024/04/21 07:09:01;;;;;;;2.50;2.40;;;7.70;99.90;;;;;;5416963;26;20264;-72
2024/04/21 07:11:29;;;;;;;2.50;2.40;;;7.80;99.90;;;;;;5431716;26;20259;-76
2024/04/21 07:13:55;;;;;;;2.63;2.42;;;8.00;99.90;;;;;;5425649;26;20323;-69
2024/04/21 07:16:25;;;;;;;2.58;2.40;;;8.10;99.90;;;;;;5432747;26;20252;-70
2024/04/21 07:18:51;;;;;;;2.83;2.63;;;8.20;99.90;;;;;;5432581;26;20259;-73
2024/04/21 07:21:21;;;;;;;3.28;2.53;;;8.30;99.90;;;;;;5429564;26;20811;-73
2024/04/21 07:23:47;;;;;;;3.28;2.63;;;8.40;99.90;;;;;;5400246;26;20334;-72
2024/04/21 07:26:18;;;;;;;2.67;2.47;;;8.60;99.90;;;;;;5395494;26;20263;-73
2024/04/21 07:28:45;;;;;;;2.60;2.40;;;8.80;99.90;;;;;;5433176;26;20797;-73
2024/04/21 07:31:14;;;;;;;2.35;2.25;;;8.80;99.90;;;;;;5425695;26;20277;-73
2024/04/21 07:33:40;;;;;;;2.85;2.53;;;8.90;99.90;;;;;;5430012;26;20272;-73
2024/04/21 07:36:09;;;;;;;2.35;2.15;;;9.00;99.90;;;;;;5402547;26;20299;-72
2024/04/21 07:38:36;;;;;;;2.75;2.25;;;9.10;99.90;;;;;;5424810;26;20251;-71
2024/04/21 07:41:04;;;;;;;2.30;2.20;;;9.20;99.90;;;;;;5425274;26;20251;-72
2024/04/21 07:43:35;;;;;;;4.00;2.50;;;9.40;99.90;;;;;;5407448;26;20301;-73
2024/04/21 07:46:04;;;;;;;2.30;2.15;;;9.70;99.90;;;;;;5428018;26;20247;-71
2024/04/21 07:48:30;;;;;;;2.10;2.00;;;9.90;99.90;;;;;;5375423;26;20264;-71
2024/04/21 07:50:59;;;;;;;3.05;2.22;;;10.10;99.90;;;;;;5387748;26;20263;-72
2024/04/21 07:53:25;;;;;;;1.90;1.80;;;10.40;98.90;;;;;;5396667;26;20255;-71
2024/04/21 07:55:53;;;;;;;2.33;2.15;;;10.80;99.90;;;;;;5424335;26;20279;-71
2024/04/21 07:58:19;;;;;;;1.90;1.80;;;10.90;98.70;;;;;;5418089;26;20251;-71
2024/04/21 08:00:51;;;;;;;2.85;2.00;;;10.80;97.80;;;;;;5405651;26;20277;-71
2024/04/21 08:03:17;;;;;;;1.92;1.77;;;10.80;97.50;;;;;;5438264;26;20263;-73
2024/04/21 08:05:45;;;;;;;1.75;1.65;;;10.90;96.70;;;;;;5424254;26;20299;-72
2024/04/21 08:08:11;;;;;;;1.80;1.70;;;11.00;96.50;;;;;;5392428;26;20263;-72
2024/04/21 08:10:40;;;;;;;1.60;1.50;;;11.20;96.00;;;;;;5416806;26;20287;-72
2024/04/21 08:13:06;;;;;;;1.70;1.60;;;11.30;96.20;;;;;;5403766;26;20724;-72
2024/04/21 08:15:35;;;;;;;1.83;1.73;;;11.50;96.40;;;;;;5408197;26;20292;-71
2024/04/21 08:18:03;;;;;;;1.75;1.65;;;11.70;95.20;;;;;;5396348;26;20311;-70
2024/04/21 08:20:32;;;;;;;2.00;1.80;;;11.70;95.40;;;;;;5425774;26;20939;-70
2024/04/21 08:22:58;;;;;;;1.70;1.60;;;11.50;94.60;;;;;;5418767;26;20376;-70
2024/04/21 08:25:27;;;;;;;1.60;1.50;;;11.60;95.80;;;;;;5432885;26;20255;-70
2024/04/21 08:27:53;;;;;;;1.85;1.75;;;11.80;95.60;;;;;;5431105;26;20255;-70
2024/04/21 08:30:21;;;;;;;1.88;1.77;;;11.90;95.00;;;;;;5400614;26;20298;-70
2024/04/21 08:32:47;;;;;;;1.65;1.55;;;11.70;94.20;;;;;;5420729;26;20264;-70
2024/04/21 08:35:19;;;;;;;1.60;1.52;;;11.50;95.30;;;;;;5407849;26;20259;-73
2024/04/21 08:37:45;;;;;;;1.42;1.42;;;11.50;94.90;;;;;;5399626;26;20349;-71
2024/04/21 08:40:14;;;;;;;1.70;1.60;;;11.60;95.90;;;;;;5396279;26;20287;-72
2024/04/21 08:42:42;;;;;;;1.75;1.65;;;11.70;95.90;;;;;;5404555;26;20342;-71
2024/04/21 08:45:11;;;;;;;1.65;1.55;;;11.90;97.30;;;;;;5397278;26;20642;-72
2024/04/21 08:47:38;;;;;;;1.70;1.60;;;12.20;96.60;;;;;;5394003;26;20256;-72
2024/04/21 08:50:09;;;;;;;1.40;1.30;;;12.30;95.50;;;;;;5422804;26;20251;-72
2024/04/21 08:52:38;;;;;;;1.60;1.50;;;12.50;94.70;;;;;;5397251;26;20339;-73
2024/04/21 08:55:07;;;;;;;1.50;1.50;;;12.40;93.30;;;;;;5396110;26;20580;-71
2024/04/21 08:57:34;;;;;;;1.60;1.50;;;12.40;94.30;;;;;;5421264;26;24821;-72
2024/04/21 09:00:04;;;;;;;1.50;1.40;;;12.40;94.20;;;;;;5425833;26;20263;-71
2024/04/21 09:02:30;;;;;;;1.50;1.40;;;12.40;92.70;;;;;;5398116;26;20653;-71
2024/04/21 09:04:59;;;;;;;1.65;1.55;;;12.20;92.90;;;;;;5431906;26;20263;-71
2024/04/21 09:07:27;;;;;;;1.40;1.40;;;12.00;94.30;;;;;;5394491;26;20834;-71
2024/04/21 09:09:59;;;;;;;1.40;1.40;;;12.00;92.30;;;;;;5427630;26;20257;-72
2024/04/21 09:12:25;;;;;;;1.40;1.40;;;11.90;93.60;;;;;;5413054;26;20301;-71
2024/04/21 09:14:54;;;;;;;1.42;1.40;;;11.80;92.30;;;;;;5397182;26;20260;-71
2024/04/21 09:17:20;;;;;;;1.52;1.50;;;11.80;92.50;;;;;;5402247;26;21054;-72
2024/04/21 09:19:49;;;;;;;1.45;1.35;;;11.70;92.40;;;;;;5367304;26;20256;-71
2024/04/21 09:22:15;;;;;;;1.55;1.45;;;11.70;92.80;;;;;;5394504;26;20256;-72
2024/04/21 09:24:44;;;;;;;1.52;1.42;;;11.80;92.80;;;;;;5401711;26;20743;-71
2024/04/21 09:27:13;;;;;;;1.67;1.50;;;11.80;90.90;;;;;;5418682;26;20894;-71
2024/04/21 09:29:42;;;;;;;1.60;1.50;;;11.80;91.90;;;;;;5424545;26;20274;-71
2024/04/21 09:32:09;;;;;;;1.70;1.60;;;11.80;91.70;;;;;;5396845;26;20271;-72
2024/04/21 09:34:38;;;;;;;1.40;1.40;;;12.00;91.60;;;;;;5404024;26;20271;-72
2024/04/21 09:37:04;;;;;;;1.88;1.42;;;12.20;91.40;;;;;;5420472;26;20254;-71
2024/04/21 09:39:34;;;;;;;1.40;1.40;;;12.30;91.70;;;;;;5422272;26;20298;-71
2024/04/21 09:42:01;;;;;;;1.58;1.48;;;12.30;91.80;;;;;;5375042;26;20759;-73
2024/04/21 09:44:35;;;;;;;1.48;1.38;;;12.40;91.30;;;;;;5418915;26;20411;-71
2024/04/21 09:47:02;;;;;;;1.58;1.25;;;12.20;90.10;;;;;;5417007;26;20293;-71
2024/04/21 09:49:33;;;;;;;1.63;1.52;;;12.20;91.00;;;;;;5374851;26;20656;-70
2024/04/21 09:52:01;;;;;;;1.63;1.52;;;12.30;90.90;;;;;;5420457;26;20255;-71
2024/04/21 09:54:31;;;;;;;4.28;1.58;;;12.50;91.10;;;;;;5398743;26;20255;-72
2024/04/21 09:57:03;;;;;;;1.50;1.40;;;12.70;91.40;;;;;;5422663;26;20255;-71
2024/04/21 09:59:36;;;;;;;1.38;1.30;;;12.90;91.20;;;;;;5399394;26;20281;-72
2024/04/21 10:02:09;;;;;;;1.70;1.60;;;13.10;90.90;;;;;;5420058;26;20248;-71
2024/04/21 10:04:40;;;;;;;1.30;1.30;;;13.20;90.30;;;;;;5420913;26;20259;-72
2024/04/21 10:07:07;;;;;;;1.50;1.40;;;13.40;90.20;;;;;;5364917;26;1047443;-72
2024/04/21 10:09:38;;;;;;;1.38;1.30;;;13.40;87.60;;;;;;5407163;26;20259;-70
2024/04/21 10:12:05;;;;;;;1.55;1.45;;;13.50;88.60;;;;;;5431008;26;20251;-71
2024/04/21 10:14:38;;;;;;;2.13;1.40;;;13.60;87.50;;;;;;5398368;26;20301;-72
2024/04/21 10:17:04;;;;;;;1.38;1.27;;;13.90;90.00;;;;;;5401992;26;20298;-71
2024/04/21 10:19:33;;;;;;;3.20;1.30;;;14.00;88.00;;;;;;5422164;26;20255;-71
2024/04/21 10:22:00;;;;;;;1.17;1.17;;;13.90;85.90;;;;;;5394195;26;20247;-71
2024/04/21 10:24:28;;;;;;;1.15;1.08;;;13.70;85.90;;;;;;5421199;26;20367;-71
2024/04/21 10:27:01;;;;;;;2.08;1.27;;;13.60;88.10;;;;;;5373149;26;20307;-71
2024/04/21 10:29:32;;;;;;;2.17;1.35;;;13.50;88.80;;;;;;5423210;26;20255;-71
2024/04/21 10:32:12;;;;;;;1.40;1.30;;;13.30;88.40;;;;;;5419844;26;20250;-72
2024/04/21 10:34:46;;;;;;;1.60;1.15;;;13.20;90.40;;;;;;5434127;26;20766;-73
2024/04/21 10:37:15;;;;;;;1.30;1.20;;;13.10;90.40;;;;;;5426113;26;20317;-72
2024/04/21 10:39:43;;;;;;;1.67;1.58;;;13.00;90.50;;;;;;5377513;26;20247;-73
2024/04/21 10:42:10;;;;;;;1.30;1.30;;;13.10;92.20;;;;;;5403989;26;20301;-72
2024/04/21 10:44:41;;;;;;;1.55;1.45;;;13.20;91.60;;;;;;5420234;26;20319;-72
2024/04/21 10:47:10;;;;;;;1.33;1.23;;;13.30;91.10;;;;;;5404231;26;20262;-72
2024/04/21 10:49:39;;;;;;;1.42;1.30;;;13.20;90.50;;;;;;5421639;26;20328;-72
2024/04/21 10:52:06;;;;;;;2.13;1.55;;;13.10;90.10;;;;;;5404219;26;20245;-72
2024/04/21 10:54:35;;;;;;;1.58;1.48;;;13.10;90.80;;;;;;5387302;26;20250;-72
2024/04/21 10:57:03;;;;;;;1.70;1.60;;;13.00;90.40;;;;;;5403784;26;20267;-72
2024/04/21 10:59:33;;;;;;;1.67;1.45;;;13.10;91.30;;;;;;5351938;26;20341;-73
2024/04/21 11:01:59;;;;;;;1.63;1.52;;;13.20;92.10;;;;;;5408309;26;20326;-72
2024/04/21 11:04:34;;;;;;;1.60;1.50;;;13.30;91.70;;;;;;5410465;26;20311;-73
2024/04/21 11:07:01;;;;;;;1.42;1.40;;;13.30;91.00;;;;;;5402475;26;20248;-71
2024/04/21 11:09:30;;;;;;;1.60;1.50;;;13.20;90.90;;;;;;5403690;26;20306;-73
2024/04/21 11:11:56;;;;;;;1.65;1.45;;;13.20;90.40;;;;;;5402924;26;20304;-70
2024/04/21 11:14:25;;;;;;;1.20;1.20;;;13.50;90.20;;;;;;5436837;26;20263;-71
2024/04/21 11:16:51;;;;;;;1.60;1.42;;;14.10;90.40;;;;;;5439442;26;20292;-72
2024/04/21 11:19:24;;;;;;;1.80;1.58;;;14.60;91.40;;;;;;5406469;26;20260;-73
2024/04/21 11:21:53;;;;;;;1.33;1.23;;;14.80;86.60;;;;;;5428590;26;20290;-75
2024/04/21 11:24:22;;;;;;;1.20;1.15;;;14.90;87.00;;;;;;5407302;26;20295;-72
2024/04/21 11:26:48;;;;;;;1.38;1.30;;;14.90;86.50;;;;;;5399668;26;20251;-72
2024/04/21 11:29:16;;;;;;;1.50;1.20;;;14.90;81.80;;;;;;5424856;26;23099;-75
2024/04/21 11:31:42;;;;;;;1.13;1.13;;;14.90;80.80;;;;;;5431413;26;20281;-74
2024/04/21 11:34:11;;;;;;;1.40;1.30;;;15.50;84.20;;;;;;5430077;26;20259;-73
2024/04/21 11:36:37;;;;;;;1.50;1.35;;;15.90;83.20;;;;;;5373790;26;20252;-72
2024/04/21 11:39:10;;;;;;;1.23;1.10;;;16.10;78.70;;;;;;5425971;26;20314;-73
2024/04/21 11:41:36;;;;;;;1.17;1.08;;;16.40;83.20;;;;;;5400658;26;20253;-73
2024/04/21 11:44:05;;;;;;;1.17;1.10;;;16.20;78.60;;;;;;5428884;26;20268;-72
2024/04/21 11:46:32;;;;;;;1.08;1.08;;;16.10;79.90;;;;;;5436985;26;20260;-72
2024/04/21 11:49:00;;;;;;;1.52;1.10;;;16.40;80.90;;;;;;5423947;26;20299;-74
2024/04/21 11:51:26;;;;;;;1.55;1.45;;;16.50;78.30;;;;;;5425588;26;20631;-74
2024/04/21 11:53:55;;;;;;;3.03;1.00;;;16.30;77.30;;;;;;5422928;26;20294;-72
2024/04/21 11:56:24;;;;;;;1.70;1.40;;;16.30;78.50;;;;;;5417936;26;20543;-72
2024/04/21 11:58:53;;;;;;;1.30;1.20;;;16.40;74.60;;;;;;5392504;26;20251;-73
2024/04/21 12:01:19;;;;;;;1.20;1.20;;;16.10;75.30;;;;;;5427291;26;21306;-72
2024/04/21 12:03:49;;;;;;;1.00;1.00;;;15.90;76.10;;;;;;5423553;26;20473;-72
2024/04/21 12:06:15;;;;;;;0.70;0.70;;;15.50;77.40;;;;;;5425068;26;20711;-72
2024/04/21 12:08:45;;;;;;;0.73;0.73;;;15.20;69.50;;;;;;5422986;26;20252;-72
2024/04/21 12:11:11;;;;;;;0.70;0.70;;;15.30;62.70;;;;;;5430340;26;20259;-74
2024/04/21 12:13:43;;;;;;;0.90;0.90;;;15.00;64.10;;;;;;5430630;26;20256;-72
2024/04/21 12:16:09;;;;;;;0.95;0.95;;;14.70;61.20;;;;;;5423241;26;20282;-73
2024/04/21 12:18:38;;;;;;;0.88;0.88;;;14.70;61.20;;;;;;5408171;26;20260;-72
2024/04/21 12:21:04;;;;;;;0.90;0.90;;;14.60;65.00;;;;;;5403465;26;20256;-74
2024/04/21 12:23:33;;;;;;;0.70;0.70;;;14.40;67.30;;;;;;5409636;26;20646;-74
2024/04/21 12:25:59;;;;;;;1.00;1.00;;;14.20;65.90;;;;;;5422991;26;20310;-72
2024/04/21 12:28:28;;;;;;;0.80;0.80;;;14.00;68.00;;;;;;5435502;26;20696;-74
2024/04/21 12:31:00;;;;;;;0.82;0.82;;;13.90;67.80;;;;;;5399263;26;20251;-72
2024/04/21 12:33:29;;;;;;;0.80;0.80;;;13.90;67.80;;;;;;5425203;26;20327;-72
2024/04/21 12:35:55;;;;;;;0.90;0.90;;;13.90;66.10;;;;;;5401062;26;20268;-73
2024/04/21 12:38:24;;;;;;;0.98;0.98;;;13.90;65.20;;;;;;5396876;26;20255;-72
2024/04/21 12:40:50;;;;;;;0.90;0.90;;;13.80;60.70;;;;;;5423291;26;20736;-72
2024/04/21 12:43:18;;;;;;;0.90;0.90;;;13.80;61.70;;;;;;5427779;26;20255;-72
2024/04/21 12:45:45;;;;;;;1.48;0.80;;;13.80;63.40;;;;;;5425966;26;20231;-72
2024/04/21 12:48:16;;;;;;;1.10;1.10;;;13.90;64.50;;;;;;5430694;26;20255;-72
2024/04/21 12:50:42;;;;;;;0.98;0.98;;;14.10;64.40;;;;;;5432562;26;20260;-72
2024/04/21 12:53:11;;;;;;;0.90;0.90;;;14.10;65.10;;;;;;5430082;26;20301;-72
2024/04/21 12:55:38;;;;;;;0.90;0.90;;;14.10;63.60;;;;;;5431002;26;20252;-72
2024/04/21 12:58:07;;;;;;;0.90;0.90;;;14.10;61.90;;;;;;5428542;26;20298;-72